UCFL

Tamchy Airport

Tamchy, Kyrgyzstan
TAF UCFL 211958Z 2121/2206 32003G08MPS 9999 FEW030
Issued Valid From Valid To
Jul-21 @ 19:58 UTC
(3 hours ago)
Jul-21 @ 21:00 UTC
(2 hours ago)
Jul-22 @ 06:00 UTC
(in 7 hours)
Jul-21 @ 21:00 to Jul-22 @ 06:00
TAF UCFL 211958Z 2121/2206 32003G08MPS 9999 FEW030
Wind Visibility Clouds
320° at 6 knots
 Gusting to 16 knots
10,000+ meters
  • Few at 3,000' AGL
TAF UCFL 211958Z 2121/2206 32003G08MPS 9999 FEW030
Issued Jul-21 @ 19:58 UTC
(3 hours ago)
Valid From Jul-21 @ 21:00 UTC
(2 hours ago)
Valid To Jul-22 @ 06:00 UTC
(in 7 hours)
Jul-21 @ 21:00 - Jul-22 @ 06:00
Wind Visibility
320° at 6 knots
 Gusting to 16 knots
10,000+ meters
Clouds
  • Few at 3,000' AGL